sensor_id;sensor_type;location;lat;lon;timestamp;temperature;humidity
60027;DHT22;45891;53.006;6.512;2023-04-01T00:01:10;10.00;99.90
60027;DHT22;45891;53.006;6.512;2023-04-01T00:03:37;10.00;99.90
60027;DHT22;45891;53.006;6.512;2023-04-01T00:06:03;9.90;99.90
60027;DHT22;45891;53.006;6.512;2023-04-01T00:08:29;9.90;99.90
60027;DHT22;45891;53.006;6.512;2023-04-01T00:10:55;9.90;99.90
60027;DHT22;45891;53.006;6.512;2023-04-01T00:13:22;9.90;99.90
60027;DHT22;45891;53.006;6.512;2023-04-01T00:15:48;9.90;99.90
60027;DHT22;45891;53.006;6.512;2023-04-01T00:18:14;9.90;99.90
60027;DHT22;45891;53.006;6.512;2023-04-01T00:20:44;9.90;99.90
60027;DHT22;45891;53.006;6.512;2023-04-01T00:23:11;9.90;99.90
60027;DHT22;45891;53.006;6.512;2023-04-01T00:25:36;9.90;99.90
60027;DHT22;45891;53.006;6.512;2023-04-01T00:28:02;9.90;99.90
60027;DHT22;45891;53.006;6.512;2023-04-01T00:30:28;9.90;99.90
60027;DHT22;45891;53.006;6.512;2023-04-01T00:32:54;9.90;99.90
60027;DHT22;45891;53.006;6.512;2023-04-01T00:35:20;10.00;99.90
60027;DHT22;45891;53.006;6.512;2023-04-01T00:37:46;9.90;99.90
60027;DHT22;45891;53.006;6.512;2023-04-01T00:40:23;9.90;99.90
60027;DHT22;45891;53.006;6.512;2023-04-01T00:42:49;9.90;99.90
60027;DHT22;45891;53.006;6.512;2023-04-01T00:47:54;9.90;99.90
60027;DHT22;45891;53.006;6.512;2023-04-01T00:50:21;9.90;99.90
60027;DHT22;45891;53.006;6.512;2023-04-01T00:52:48;9.90;99.90
60027;DHT22;45891;53.006;6.512;2023-04-01T00:55:14;9.90;99.90
60027;DHT22;45891;53.006;6.512;2023-04-01T00:57:40;9.90;99.90
60027;DHT22;45891;53.006;6.512;2023-04-01T01:00:09;9.90;99.90
60027;DHT22;45891;53.006;6.512;2023-04-01T01:02:35;9.90;99.90
60027;DHT22;45891;53.006;6.512;2023-04-01T01:05:01;9.90;99.90
60027;DHT22;45891;53.006;6.512;2023-04-01T01:07:52;9.90;99.90
60027;DHT22;45891;53.006;6.512;2023-04-01T01:15:46;9.90;99.90
60027;DHT22;45891;53.006;6.512;2023-04-01T01:26:08;9.90;99.90
60027;DHT22;45891;53.006;6.512;2023-04-01T01:33:41;9.80;99.90
60027;DHT22;45891;53.006;6.512;2023-04-01T01:36:12;9.90;99.90
60027;DHT22;45891;53.006;6.512;2023-04-01T01:38:38;9.80;99.90
60027;DHT22;45891;53.006;6.512;2023-04-01T01:41:05;9.90;99.90
60027;DHT22;45891;53.006;6.512;2023-04-01T01:43:39;9.80;99.90
60027;DHT22;45891;53.006;6.512;2023-04-01T01:46:09;9.80;99.90
60027;DHT22;45891;53.006;6.512;2023-04-01T01:48:36;9.90;99.90
60027;DHT22;45891;53.006;6.512;2023-04-01T01:51:04;9.80;99.90
60027;DHT22;45891;53.006;6.512;2023-04-01T01:53:30;9.80;99.90
60027;DHT22;45891;53.006;6.512;2023-04-01T01:55:56;9.80;99.90
60027;DHT22;45891;53.006;6.512;2023-04-01T01:58:35;9.80;99.90
60027;DHT22;45891;53.006;6.512;2023-04-01T02:01:06;9.70;99.90
60027;DHT22;45891;53.006;6.512;2023-04-01T02:03:35;9.70;99.90
60027;DHT22;45891;53.006;6.512;2023-04-01T02:06:03;9.80;99.90
60027;DHT22;45891;53.006;6.512;2023-04-01T02:11:02;9.70;99.90
60027;DHT22;45891;53.006;6.512;2023-04-01T02:13:39;9.70;99.90
60027;DHT22;45891;53.006;6.512;2023-04-01T02:16:10;9.70;99.90
60027;DHT22;45891;53.006;6.512;2023-04-01T02:18:37;9.70;99.90
60027;DHT22;45891;53.006;6.512;2023-04-01T02:21:04;9.70;99.90
60027;DHT22;45891;53.006;6.512;2023-04-01T02:23:30;9.70;99.90
60027;DHT22;45891;53.006;6.512;2023-04-01T02:25:57;9.70;99.90
60027;DHT22;45891;53.006;6.512;2023-04-01T02:28:23;9.70;99.90
60027;DHT22;45891;53.006;6.512;2023-04-01T02:30:50;9.70;99.90
60027;DHT22;45891;53.006;6.512;2023-04-01T02:33:16;9.70;99.90
60027;DHT22;45891;53.006;6.512;2023-04-01T02:35:42;9.70;99.90
60027;DHT22;45891;53.006;6.512;2023-04-01T02:38:08;9.70;99.90
60027;DHT22;45891;53.006;6.512;2023-04-01T02:40:45;9.70;99.90
60027;DHT22;45891;53.006;6.512;2023-04-01T02:43:11;9.60;99.90
60027;DHT22;45891;53.006;6.512;2023-04-01T02:45:37;9.60;99.90
60027;DHT22;45891;53.006;6.512;2023-04-01T02:48:03;9.70;99.90
60027;DHT22;45891;53.006;6.512;2023-04-01T02:50:29;9.60;99.90
60027;DHT22;45891;53.006;6.512;2023-04-01T02:52:55;9.60;99.90
60027;DHT22;45891;53.006;6.512;2023-04-01T02:55:21;9.70;99.90
60027;DHT22;45891;53.006;6.512;2023-04-01T02:57:47;9.60;99.90
60027;DHT22;45891;53.006;6.512;2023-04-01T03:00:13;9.60;99.90
60027;DHT22;45891;53.006;6.512;2023-04-01T03:02:40;9.60;99.90
60027;DHT22;45891;53.006;6.512;2023-04-01T03:05:06;9.60;99.90
60027;DHT22;45891;53.006;6.512;2023-04-01T03:07:32;9.60;99.90
60027;DHT22;45891;53.006;6.512;2023-04-01T03:09:58;9.60;99.90
60027;DHT22;45891;53.006;6.512;2023-04-01T03:12:25;9.60;99.90
60027;DHT22;45891;53.006;6.512;2023-04-01T03:14:50;9.50;99.90
60027;DHT22;45891;53.006;6.512;2023-04-01T03:17:16;9.50;99.90
60027;DHT22;45891;53.006;6.512;2023-04-01T03:19:42;9.50;99.90
60027;DHT22;45891;53.006;6.512;2023-04-01T03:22:10;9.50;99.90
60027;DHT22;45891;53.006;6.512;2023-04-01T03:24:36;9.50;99.90
60027;DHT22;45891;53.006;6.512;2023-04-01T03:27:02;9.50;99.90
60027;DHT22;45891;53.006;6.512;2023-04-01T03:29:28;9.50;99.90
60027;DHT22;45891;53.006;6.512;2023-04-01T03:31:54;9.50;99.90
60027;DHT22;45891;53.006;6.512;2023-04-01T03:34:20;9.50;99.90
60027;DHT22;45891;53.006;6.512;2023-04-01T03:36:45;9.50;99.90
60027;DHT22;45891;53.006;6.512;2023-04-01T03:39:11;9.40;99.90
60027;DHT22;45891;53.006;6.512;2023-04-01T03:41:37;9.40;99.90
60027;DHT22;45891;53.006;6.512;2023-04-01T03:44:04;9.50;99.90
60027;DHT22;45891;53.006;6.512;2023-04-01T03:46:30;9.50;99.90
60027;DHT22;45891;53.006;6.512;2023-04-01T03:48:56;9.50;99.90
60027;DHT22;45891;53.006;6.512;2023-04-01T03:51:22;9.50;99.90
60027;DHT22;45891;53.006;6.512;2023-04-01T03:53:48;9.50;99.90
60027;DHT22;45891;53.006;6.512;2023-04-01T03:56:14;9.50;99.90
60027;DHT22;45891;53.006;6.512;2023-04-01T03:58:40;9.50;99.90
60027;DHT22;45891;53.006;6.512;2023-04-01T04:01:16;9.50;99.90
60027;DHT22;45891;53.006;6.512;2023-04-01T04:03:42;9.60;99.90
60027;DHT22;45891;53.006;6.512;2023-04-01T04:06:11;9.50;99.90
60027;DHT22;45891;53.006;6.512;2023-04-01T04:08:37;9.50;99.90
60027;DHT22;45891;53.006;6.512;2023-04-01T04:11:02;9.50;99.90
60027;DHT22;45891;53.006;6.512;2023-04-01T04:13:28;9.60;99.90
60027;DHT22;45891;53.006;6.512;2023-04-01T04:15:54;9.60;99.90
60027;DHT22;45891;53.006;6.512;2023-04-01T04:18:20;9.60;99.90
60027;DHT22;45891;53.006;6.512;2023-04-01T04:20:46;9.60;99.90
60027;DHT22;45891;53.006;6.512;2023-04-01T04:23:15;9.60;99.90
60027;DHT22;45891;53.006;6.512;2023-04-01T04:25:41;9.60;99.90
60027;DHT22;45891;53.006;6.512;2023-04-01T04:28:07;9.60;99.90
60027;DHT22;45891;53.006;6.512;2023-04-01T04:30:33;9.60;99.90
60027;DHT22;45891;53.006;6.512;2023-04-01T04:32:59;9.60;99.90
60027;DHT22;45891;53.006;6.512;2023-04-01T04:35:25;9.60;99.90
60027;DHT22;45891;53.006;6.512;2023-04-01T04:37:51;9.60;99.90
60027;DHT22;45891;53.006;6.512;2023-04-01T04:40:17;9.60;99.90
60027;DHT22;45891;53.006;6.512;2023-04-01T04:42:43;9.70;99.90
60027;DHT22;45891;53.006;6.512;2023-04-01T04:45:10;9.70;99.90
60027;DHT22;45891;53.006;6.512;2023-04-01T04:47:37;9.70;99.90
60027;DHT22;45891;53.006;6.512;2023-04-01T04:50:04;9.60;99.90
60027;DHT22;45891;53.006;6.512;2023-04-01T04:52:30;9.70;99.90
60027;DHT22;45891;53.006;6.512;2023-04-01T04:54:56;9.70;99.90
60027;DHT22;45891;53.006;6.512;2023-04-01T04:57:22;9.60;99.90
60027;DHT22;45891;53.006;6.512;2023-04-01T04:59:48;9.60;99.90
60027;DHT22;45891;53.006;6.512;2023-04-01T05:02:13;9.60;99.90
60027;DHT22;45891;53.006;6.512;2023-04-01T05:04:39;9.70;99.90
60027;DHT22;45891;53.006;6.512;2023-04-01T05:07:05;9.70;99.90
60027;DHT22;45891;53.006;6.512;2023-04-01T05:09:31;9.70;99.90
60027;DHT22;45891;53.006;6.512;2023-04-01T05:11:57;9.60;99.90
60027;DHT22;45891;53.006;6.512;2023-04-01T05:14:26;9.70;99.90
60027;DHT22;45891;53.006;6.512;2023-04-01T05:16:52;9.70;99.90
60027;DHT22;45891;53.006;6.512;2023-04-01T05:19:19;9.70;99.90
60027;DHT22;45891;53.006;6.512;2023-04-01T05:21:46;9.70;99.90
60027;DHT22;45891;53.006;6.512;2023-04-01T05:24:12;9.70;99.90
60027;DHT22;45891;53.006;6.512;2023-04-01T05:26:37;9.70;99.90
60027;DHT22;45891;53.006;6.512;2023-04-01T05:29:04;9.70;99.90
60027;DHT22;45891;53.006;6.512;2023-04-01T05:31:30;9.70;99.90
60027;DHT22;45891;53.006;6.512;2023-04-01T05:33:56;9.70;99.90
60027;DHT22;45891;53.006;6.512;2023-04-01T05:36:22;9.70;99.90
60027;DHT22;45891;53.006;6.512;2023-04-01T05:38:48;9.80;99.90
60027;DHT22;45891;53.006;6.512;2023-04-01T05:41:14;9.80;99.90
60027;DHT22;45891;53.006;6.512;2023-04-01T05:43:40;9.70;99.90
60027;DHT22;45891;53.006;6.512;2023-04-01T05:46:06;9.70;99.90
60027;DHT22;45891;53.006;6.512;2023-04-01T05:48:33;9.80;99.90
60027;DHT22;45891;53.006;6.512;2023-04-01T05:51:00;9.80;99.90
60027;DHT22;45891;53.006;6.512;2023-04-01T05:53:26;9.80;99.90
60027;DHT22;45891;53.006;6.512;2023-04-01T05:55:52;9.70;99.90
60027;DHT22;45891;53.006;6.512;2023-04-01T05:58:18;9.80;99.90
60027;DHT22;45891;53.006;6.512;2023-04-01T06:00:44;9.80;99.90
60027;DHT22;45891;53.006;6.512;2023-04-01T06:03:10;9.70;99.90
60027;DHT22;45891;53.006;6.512;2023-04-01T06:05:42;9.70;99.90
60027;DHT22;45891;53.006;6.512;2023-04-01T06:08:13;9.70;99.90
60027;DHT22;45891;53.006;6.512;2023-04-01T06:23:31;9.70;99.90
60027;DHT22;45891;53.006;6.512;2023-04-01T06:33:29;9.70;99.90
60027;DHT22;45891;53.006;6.512;2023-04-01T06:41:08;9.70;99.90
60027;DHT22;45891;53.006;6.512;2023-04-01T06:43:40;9.70;99.90
60027;DHT22;45891;53.006;6.512;2023-04-01T06:48:42;9.70;99.90
60027;DHT22;45891;53.006;6.512;2023-04-01T06:54:16;9.70;99.90
60027;DHT22;45891;53.006;6.512;2023-04-01T06:56:33;9.70;99.90
60027;DHT22;45891;53.006;6.512;2023-04-01T06:59:05;9.70;99.90
60027;DHT22;45891;53.006;6.512;2023-04-01T07:01:34;9.80;99.90
60027;DHT22;45891;53.006;6.512;2023-04-01T07:04:11;9.70;99.90
60027;DHT22;45891;53.006;6.512;2023-04-01T07:09:12;9.70;99.90
60027;DHT22;45891;53.006;6.512;2023-04-01T07:11:40;9.70;99.90
60027;DHT22;45891;53.006;6.512;2023-04-01T07:14:17;9.70;99.90
60027;DHT22;45891;53.006;6.512;2023-04-01T07:21:49;9.80;99.90
60027;DHT22;45891;53.006;6.512;2023-04-01T07:24:20;9.80;99.90
60027;DHT22;45891;53.006;6.512;2023-04-01T07:26:47;9.80;99.90
60027;DHT22;45891;53.006;6.512;2023-04-01T07:29:14;9.90;99.90
60027;DHT22;45891;53.006;6.512;2023-04-01T07:34:26;10.00;99.90
60027;DHT22;45891;53.006;6.512;2023-04-01T07:36:54;10.10;99.90
60027;DHT22;45891;53.006;6.512;2023-04-01T07:44:59;10.20;99.90
60027;DHT22;45891;53.006;6.512;2023-04-01T08:05:19;10.80;99.90
60027;DHT22;45891;53.006;6.512;2023-04-01T08:12:47;11.00;99.90
60027;DHT22;45891;53.006;6.512;2023-04-01T08:18:13;11.10;99.90
60027;DHT22;45891;53.006;6.512;2023-04-01T08:23:27;11.10;99.90
60027;DHT22;45891;53.006;6.512;2023-04-01T08:26:04;11.20;99.90
60027;DHT22;45891;53.006;6.512;2023-04-01T08:31:36;11.10;99.90
60027;DHT22;45891;53.006;6.512;2023-04-01T08:34:03;11.30;99.90
60027;DHT22;45891;53.006;6.512;2023-04-01T08:36:32;11.20;99.90
60027;DHT22;45891;53.006;6.512;2023-04-01T08:39:06;11.30;99.90
60027;DHT22;45891;53.006;6.512;2023-04-01T08:59:29;11.00;99.90
60027;DHT22;45891;53.006;6.512;2023-04-01T09:05:06;11.10;99.90
60027;DHT22;45891;53.006;6.512;2023-04-01T09:07:44;11.20;99.90
60027;DHT22;45891;53.006;6.512;2023-04-01T09:13:20;10.80;99.90
60027;DHT22;45891;53.006;6.512;2023-04-01T09:18:23;10.70;99.90
60027;DHT22;45891;53.006;6.512;2023-04-01T09:34:01;11.20;99.90
60027;DHT22;45891;53.006;6.512;2023-04-01T09:36:46;11.30;99.90
60027;DHT22;45891;53.006;6.512;2023-04-01T09:41:57;11.50;99.90
60027;DHT22;45891;53.006;6.512;2023-04-01T10:26:28;11.00;99.90
60027;DHT22;45891;53.006;6.512;2023-04-01T10:28:55;10.90;99.90
60027;DHT22;45891;53.006;6.512;2023-04-01T10:39:51;10.50;99.90
60027;DHT22;45891;53.006;6.512;2023-04-01T10:54:57;10.20;99.90
60027;DHT22;45891;53.006;6.512;2023-04-01T11:15:23;10.20;99.90
60027;DHT22;45891;53.006;6.512;2023-04-01T11:17:59;10.30;99.90
60027;DHT22;45891;53.006;6.512;2023-04-01T11:23:22;10.40;99.90
60027;DHT22;45891;53.006;6.512;2023-04-01T11:31:29;10.30;99.90
60027;DHT22;45891;53.006;6.512;2023-04-01T11:39:19;10.00;99.90
60027;DHT22;45891;53.006;6.512;2023-04-01T11:44:25;9.90;99.90
60027;DHT22;45891;53.006;6.512;2023-04-01T11:57:06;10.20;99.90
60027;DHT22;45891;53.006;6.512;2023-04-01T12:02:18;10.20;99.90
60027;DHT22;45891;53.006;6.512;2023-04-01T12:12:52;10.30;99.90
60027;DHT22;45891;53.006;6.512;2023-04-01T12:20:49;10.40;99.90
60027;DHT22;45891;53.006;6.512;2023-04-01T12:35:52;10.50;99.90
60027;DHT22;45891;53.006;6.512;2023-04-01T12:41:03;10.60;99.90
60027;DHT22;45891;53.006;6.512;2023-04-01T12:46:29;10.50;99.90
60027;DHT22;45891;53.006;6.512;2023-04-01T12:49:10;10.40;99.90
60027;DHT22;45891;53.006;6.512;2023-04-01T13:01:48;10.20;99.90
60027;DHT22;45891;53.006;6.512;2023-04-01T13:04:28;10.10;99.90
60027;DHT22;45891;53.006;6.512;2023-04-01T13:07:05;10.20;99.90
60027;DHT22;45891;53.006;6.512;2023-04-01T13:22:57;9.80;99.90
60027;DHT22;45891;53.006;6.512;2023-04-01T13:25:27;9.70;99.90
60027;DHT22;45891;53.006;6.512;2023-04-01T13:43:39;9.40;99.90
60027;DHT22;45891;53.006;6.512;2023-04-01T14:01:29;9.40;99.90
60027;DHT22;45891;53.006;6.512;2023-04-01T14:04:17;9.40;99.90
60027;DHT22;45891;53.006;6.512;2023-04-01T14:07:04;9.50;99.90
60027;DHT22;45891;53.006;6.512;2023-04-01T14:09:45;9.50;99.90
60027;DHT22;45891;53.006;6.512;2023-04-01T14:23:09;9.30;99.90
60027;DHT22;45891;53.006;6.512;2023-04-01T14:28:36;9.30;99.90
60027;DHT22;45891;53.006;6.512;2023-04-01T14:43:51;9.20;99.90
60027;DHT22;45891;53.006;6.512;2023-04-01T14:46:40;9.20;99.90
60027;DHT22;45891;53.006;6.512;2023-04-01T14:49:20;9.20;99.90
60027;DHT22;45891;53.006;6.512;2023-04-01T14:51:48;9.30;99.90
60027;DHT22;45891;53.006;6.512;2023-04-01T14:54:14;9.20;99.90
60027;DHT22;45891;53.006;6.512;2023-04-01T14:57:01;9.20;99.90
60027;DHT22;45891;53.006;6.512;2023-04-01T14:59:28;9.20;99.90
60027;DHT22;45891;53.006;6.512;2023-04-01T15:02:08;9.10;99.90
60027;DHT22;45891;53.006;6.512;2023-04-01T15:05:02;9.20;99.90
60027;DHT22;45891;53.006;6.512;2023-04-01T15:10:24;9.10;99.90
60027;DHT22;45891;53.006;6.512;2023-04-01T15:15:24;8.90;99.90
60027;DHT22;45891;53.006;6.512;2023-04-01T15:25:49;8.90;99.90
60027;DHT22;45891;53.006;6.512;2023-04-01T15:28:23;8.90;99.90
60027;DHT22;45891;53.006;6.512;2023-04-01T15:30:56;8.80;99.90
60027;DHT22;45891;53.006;6.512;2023-04-01T15:38:25;8.70;99.90
60027;DHT22;45891;53.006;6.512;2023-04-01T15:43:41;8.70;99.90
60027;DHT22;45891;53.006;6.512;2023-04-01T15:48:45;8.60;99.90
60027;DHT22;45891;53.006;6.512;2023-04-01T15:51:16;8.50;99.90
60027;DHT22;45891;53.006;6.512;2023-04-01T15:53:50;8.50;99.90
60027;DHT22;45891;53.006;6.512;2023-04-01T15:56:26;8.40;99.90
60027;DHT22;45891;53.006;6.512;2023-04-01T15:58:57;8.40;99.90
60027;DHT22;45891;53.006;6.512;2023-04-01T16:01:32;8.40;99.90
60027;DHT22;45891;53.006;6.512;2023-04-01T16:04:12;8.30;99.90
60027;DHT22;45891;53.006;6.512;2023-04-01T16:22:33;8.20;99.90
60027;DHT22;45891;53.006;6.512;2023-04-01T16:25:20;8.10;99.90
60027;DHT22;45891;53.006;6.512;2023-04-01T16:30:44;8.00;99.90
60027;DHT22;45891;53.006;6.512;2023-04-01T16:33:13;8.00;99.90
60027;DHT22;45891;53.006;6.512;2023-04-01T16:35:46;8.00;99.90
60027;DHT22;45891;53.006;6.512;2023-04-01T16:38:26;8.00;99.90
60027;DHT22;45891;53.006;6.512;2023-04-01T16:43:35;8.00;99.90
60027;DHT22;45891;53.006;6.512;2023-04-01T16:52:14;7.90;99.90
60027;DHT22;45891;53.006;6.512;2023-04-01T16:54:35;7.80;99.90
60027;DHT22;45891;53.006;6.512;2023-04-01T17:02:07;7.80;99.90
60027;DHT22;45891;53.006;6.512;2023-04-01T17:09:55;7.70;99.90
60027;DHT22;45891;53.006;6.512;2023-04-01T17:15:20;7.60;99.90
60027;DHT22;45891;53.006;6.512;2023-04-01T17:17:51;7.60;99.90
60027;DHT22;45891;53.006;6.512;2023-04-01T17:41:31;7.30;99.90
60027;DHT22;45891;53.006;6.512;2023-04-01T17:48:52;7.20;99.90
60027;DHT22;45891;53.006;6.512;2023-04-01T17:51:36;7.20;99.90
60027;DHT22;45891;53.006;6.512;2023-04-01T17:54:41;7.10;99.90
60027;DHT22;45891;53.006;6.512;2023-04-01T17:59:47;7.10;99.90
60027;DHT22;45891;53.006;6.512;2023-04-01T18:02:26;7.10;99.90
60027;DHT22;45891;53.006;6.512;2023-04-01T18:07:30;7.00;99.90
60027;DHT22;45891;53.006;6.512;2023-04-01T18:10:12;7.00;99.90
60027;DHT22;45891;53.006;6.512;2023-04-01T18:12:53;6.90;99.90
60027;DHT22;45891;53.006;6.512;2023-04-01T18:18:17;6.90;99.90
60027;DHT22;45891;53.006;6.512;2023-04-01T18:23:30;6.70;99.90
60027;DHT22;45891;53.006;6.512;2023-04-01T18:26:04;6.70;99.90
60027;DHT22;45891;53.006;6.512;2023-04-01T18:33:32;6.60;99.90
60027;DHT22;45891;53.006;6.512;2023-04-01T18:39:00;6.60;99.90
60027;DHT22;45891;53.006;6.512;2023-04-01T18:41:40;6.50;99.90
60027;DHT22;45891;53.006;6.512;2023-04-01T18:46:54;6.50;99.90
60027;DHT22;45891;53.006;6.512;2023-04-01T18:49:25;6.50;99.90
60027;DHT22;45891;53.006;6.512;2023-04-01T18:57:42;6.40;99.90
60027;DHT22;45891;53.006;6.512;2023-04-01T19:00:19;6.50;99.90
60027;DHT22;45891;53.006;6.512;2023-04-01T19:02:58;6.40;99.90
60027;DHT22;45891;53.006;6.512;2023-04-01T19:05:30;6.50;99.90
60027;DHT22;45891;53.006;6.512;2023-04-01T19:20:46;6.40;99.90
60027;DHT22;45891;53.006;6.512;2023-04-01T19:25:42;6.40;99.90
60027;DHT22;45891;53.006;6.512;2023-04-01T19:28:31;6.30;99.90
60027;DHT22;45891;53.006;6.512;2023-04-01T19:38:41;6.30;99.90
60027;DHT22;45891;53.006;6.512;2023-04-01T19:46:41;6.30;99.90
60027;DHT22;45891;53.006;6.512;2023-04-01T19:51:58;6.30;99.90
60027;DHT22;45891;53.006;6.512;2023-04-01T19:54:35;6.20;99.90
60027;DHT22;45891;53.006;6.512;2023-04-01T20:04:40;6.20;99.90
60027;DHT22;45891;53.006;6.512;2023-04-01T20:09:43;6.10;99.90
60027;DHT22;45891;53.006;6.512;2023-04-01T20:14:55;6.10;99.90
60027;DHT22;45891;53.006;6.512;2023-04-01T20:17:38;6.00;99.90
60027;DHT22;45891;53.006;6.512;2023-04-01T20:25:18;6.00;99.90
60027;DHT22;45891;53.006;6.512;2023-04-01T20:27:50;6.00;99.90
60027;DHT22;45891;53.006;6.512;2023-04-01T20:30:30;5.90;99.90
60027;DHT22;45891;53.006;6.512;2023-04-01T20:33:06;5.90;99.90
60027;DHT22;45891;53.006;6.512;2023-04-01T20:35:49;5.90;99.90
60027;DHT22;45891;53.006;6.512;2023-04-01T20:40:58;5.80;99.90
60027;DHT22;45891;53.006;6.512;2023-04-01T20:43:42;5.80;99.90
60027;DHT22;45891;53.006;6.512;2023-04-01T20:48:45;5.80;99.90
60027;DHT22;45891;53.006;6.512;2023-04-01T20:51:16;5.80;99.90
60027;DHT22;45891;53.006;6.512;2023-04-01T20:53:50;5.70;99.90
60027;DHT22;45891;53.006;6.512;2023-04-01T21:04:27;5.80;99.90
60027;DHT22;45891;53.006;6.512;2023-04-01T21:12:21;5.70;99.90
60027;DHT22;45891;53.006;6.512;2023-04-01T21:15:39;5.70;99.90
60027;DHT22;45891;53.006;6.512;2023-04-01T21:20:13;5.60;99.90
60027;DHT22;45891;53.006;6.512;2023-04-01T21:33:23;5.60;99.90
60027;DHT22;45891;53.006;6.512;2023-04-01T21:51:17;5.60;99.90
60027;DHT22;45891;53.006;6.512;2023-04-01T22:07:19;5.50;99.90
60027;DHT22;45891;53.006;6.512;2023-04-01T22:12:13;5.50;99.90
60027;DHT22;45891;53.006;6.512;2023-04-01T22:23:11;5.40;99.90
60027;DHT22;45891;53.006;6.512;2023-04-01T22:28:27;5.30;99.90
60027;DHT22;45891;53.006;6.512;2023-04-01T22:30:59;5.40;99.90
60027;DHT22;45891;53.006;6.512;2023-04-01T22:33:41;5.30;99.90
60027;DHT22;45891;53.006;6.512;2023-04-01T22:36:19;5.30;99.90
60027;DHT22;45891;53.006;6.512;2023-04-01T22:41:46;5.30;99.90
60027;DHT22;45891;53.006;6.512;2023-04-01T22:44:16;5.20;99.90
60027;DHT22;45891;53.006;6.512;2023-04-01T22:49:59;5.20;99.90
60027;DHT22;45891;53.006;6.512;2023-04-01T22:55:00;5.20;99.90
60027;DHT22;45891;53.006;6.512;2023-04-01T22:59:57;5.20;99.90
60027;DHT22;45891;53.006;6.512;2023-04-01T23:02:31;5.10;99.90
60027;DHT22;45891;53.006;6.512;2023-04-01T23:04:59;5.10;99.90
60027;DHT22;45891;53.006;6.512;2023-04-01T23:07:34;5.10;99.90
60027;DHT22;45891;53.006;6.512;2023-04-01T23:10:03;5.10;99.90
60027;DHT22;45891;53.006;6.512;2023-04-01T23:12:31;5.00;99.90
60027;DHT22;45891;53.006;6.512;2023-04-01T23:14:58;5.00;99.90
60027;DHT22;45891;53.006;6.512;2023-04-01T23:17:34;4.90;99.90
60027;DHT22;45891;53.006;6.512;2023-04-01T23:25:15;4.90;99.90
60027;DHT22;45891;53.006;6.512;2023-04-01T23:27:51;4.80;99.90
60027;DHT22;45891;53.006;6.512;2023-04-01T23:35:46;4.80;99.90
60027;DHT22;45891;53.006;6.512;2023-04-01T23:38:12;4.80;99.90
60027;DHT22;45891;53.006;6.512;2023-04-01T23:40:38;4.70;99.90
60027;DHT22;45891;53.006;6.512;2023-04-01T23:43:12;4.80;99.90
60027;DHT22;45891;53.006;6.512;2023-04-01T23:45:41;4.70;99.90
60027;DHT22;45891;53.006;6.512;2023-04-01T23:48:10;4.80;99.90
60027;DHT22;45891;53.006;6.512;2023-04-01T23:50:37;4.70;99.90
60027;DHT22;45891;53.006;6.512;2023-04-01T23:53:07;4.60;99.90
60027;DHT22;45891;53.006;6.512;2023-04-01T23:55:37;4.50;99.90
